Time;durP1;ratioP1;P1;durP2;ratioP2;P2;SDS_P1;SDS_P2;PMS_P1;PMS_P2;Temp;Humidity;BMP_temperature;BMP_pressure;BME280_temperature;BME280_humidity;BME280_pressure;Samples;Min_cycle;Max_cycle;Signal;HPM_P1;HPM_P2
2021/04/30 00:01:45;;;;;;;1.10;0.60;;;17.30;59.90;;;;;;5006355;28;20271;-73
2021/04/30 00:04:11;;;;;;;0.87;0.60;;;17.30;57.30;;;;;;4988404;28;20189;-73
2021/04/30 00:06:38;;;;;;;1.47;0.73;;;17.50;55.50;;;;;;4991299;28;20205;-73
2021/04/30 00:09:05;;;;;;;1.57;0.70;;;17.60;57.20;;;;;;5003253;28;21499;-73
2021/04/30 00:11:31;;;;;;;3.23;0.80;;;17.70;60.80;;;;;;5004698;28;20192;-73
2021/04/30 00:13:57;;;;;;;0.60;0.53;;;17.70;62.30;;;;;;5009324;28;20310;-73
2021/04/30 00:16:24;;;;;;;3.17;0.90;;;17.80;58.90;;;;;;5004853;28;20953;-73
2021/04/30 00:18:50;;;;;;;0.80;0.57;;;17.90;52.80;;;;;;5014254;28;20185;-74
2021/04/30 00:21:17;;;;;;;0.77;0.50;;;18.10;52.70;;;;;;5020506;28;20193;-71
2021/04/30 00:23:44;;;;;;;1.20;0.70;;;18.20;50.10;;;;;;5002451;28;20224;-73
2021/04/30 00:26:11;;;;;;;1.07;0.50;;;18.20;57.80;;;;;;5004916;28;20236;-74
2021/04/30 00:28:37;;;;;;;1.47;0.93;;;18.30;53.00;;;;;;5005710;28;20193;-73
2021/04/30 00:31:04;;;;;;;1.10;0.60;;;18.30;56.20;;;;;;5004792;28;20196;-72
2021/04/30 00:33:30;;;;;;;2.77;0.73;;;18.30;51.00;;;;;;5001304;28;20209;-73
2021/04/30 00:35:57;;;;;;;1.60;0.80;;;18.40;51.60;;;;;;5004979;28;20627;-71
2021/04/30 00:38:23;;;;;;;5.33;0.90;;;18.40;51.40;;;;;;5002400;28;20185;-71
2021/04/30 00:40:52;;;;;;;8.60;0.70;;;18.30;52.70;;;;;;4992832;28;21173;-71
2021/04/30 00:43:18;;;;;;;1.17;0.70;;;18.30;55.60;;;;;;5006105;28;20189;-71
2021/04/30 00:45:45;;;;;;;6.30;0.90;;;18.30;50.60;;;;;;4986122;28;20189;-71
2021/04/30 00:48:11;;;;;;;2.70;0.90;;;18.30;56.10;;;;;;4984639;28;20193;-71
2021/04/30 00:50:38;;;;;;;2.50;0.77;;;18.40;60.20;;;;;;4988932;28;21022;-73
2021/04/30 00:53:05;;;;;;;2.93;1.00;;;18.20;61.60;;;;;;5004452;28;20180;-73
2021/04/30 00:55:31;;;;;;;3.03;0.80;;;18.20;63.70;;;;;;5004899;28;20196;-73
2021/04/30 00:58:03;;;;;;;2.77;1.00;;;18.00;61.90;;;;;;5001368;28;20212;-73
2021/04/30 01:00:36;;;;;;;2.63;1.00;;;17.90;62.80;;;;;;5017289;28;20309;-73
2021/04/30 01:03:07;;;;;;;4.40;0.90;;;17.80;64.50;;;;;;5003107;28;20831;-72
2021/04/30 01:05:34;;;;;;;1.93;0.93;;;17.70;66.40;;;;;;5019811;28;20196;-73
2021/04/30 01:08:02;;;;;;;1.83;0.80;;;17.60;65.40;;;;;;5004359;28;20247;-73
2021/04/30 01:10:29;;;;;;;3.80;1.07;;;17.60;66.70;;;;;;4987006;28;20200;-73
2021/04/30 01:12:55;;;;;;;2.13;0.90;;;17.40;68.10;;;;;;5000418;28;22172;-73
2021/04/30 01:15:24;;;;;;;3.23;1.20;;;17.40;66.40;;;;;;4990479;28;20184;-73
2021/04/30 01:17:51;;;;;;;3.77;1.10;;;17.40;64.70;;;;;;5004779;28;20554;-73
2021/04/30 01:20:19;;;;;;;2.63;0.87;;;17.30;66.10;;;;;;5009115;28;20728;-73
2021/04/30 01:22:52;;;;;;;2.97;0.83;;;17.30;60.30;;;;;;5019444;28;20291;-73
2021/04/30 01:25:25;;;;;;;4.57;1.23;;;17.40;60.10;;;;;;5002705;28;20276;-73
2021/04/30 01:27:52;;;;;;;1.93;1.00;;;17.50;57.80;;;;;;5010847;28;20208;-74
2021/04/30 01:30:23;;;;;;;2.60;0.80;;;17.60;58.00;;;;;;5003471;28;20287;-73
2021/04/30 01:32:50;;;;;;;1.13;0.60;;;17.70;58.80;;;;;;5000601;28;20750;-72
2021/04/30 01:35:35;;;;;;;1.10;0.80;;;17.90;55.50;;;;;;5019837;28;20216;-72
2021/04/30 01:38:04;;;;;;;2.50;0.80;;;18.10;55.20;;;;;;5004257;28;20200;-70
2021/04/30 01:40:34;;;;;;;4.77;1.10;;;18.20;54.80;;;;;;5002472;28;21053;-72
2021/04/30 01:43:13;;;;;;;4.17;1.10;;;18.50;54.70;;;;;;5002614;28;20199;-71
2021/04/30 01:45:53;;;;;;;3.10;1.17;;;18.60;55.00;;;;;;5005743;28;20284;-70
2021/04/30 01:48:23;;;;;;;5.13;1.50;;;19.00;56.10;;;;;;5013517;28;20506;-73
2021/04/30 01:50:50;;;;;;;6.57;1.27;;;19.40;55.70;;;;;;5005545;28;20203;-70
2021/04/30 01:53:21;;;;;;;2.07;1.03;;;20.00;54.60;;;;;;5000123;28;20296;-71
2021/04/30 01:55:48;;;;;;;12.30;1.57;;;20.10;53.50;;;;;;4986853;28;20232;-71
2021/04/30 01:58:17;;;;;;;10.57;1.60;;;20.10;53.60;;;;;;5018084;28;20626;-72
2021/04/30 02:00:44;;;;;;;5.47;1.60;;;20.10;55.30;;;;;;5001930;28;20193;-71
2021/04/30 02:03:11;;;;;;;4.23;1.30;;;20.10;56.00;;;;;;4995589;28;20186;-71
2021/04/30 02:05:40;;;;;;;7.40;1.30;;;19.90;55.60;;;;;;4995560;28;20181;-72
2021/04/30 02:08:13;;;;;;;4.73;1.50;;;20.00;56.00;;;;;;5003801;28;20220;-71
2021/04/30 02:10:40;;;;;;;5.60;1.63;;;19.80;58.60;;;;;;5003660;28;20347;-71
2021/04/30 02:13:08;;;;;;;7.83;1.33;;;19.80;56.20;;;;;;5001412;28;20622;-71
2021/04/30 02:15:38;;;;;;;4.47;1.70;;;19.60;59.30;;;;;;5018836;28;20185;-71
2021/04/30 02:18:05;;;;;;;10.00;1.63;;;19.40;62.70;;;;;;5002761;28;20566;-72
2021/04/30 02:20:32;;;;;;;4.80;1.37;;;19.40;64.00;;;;;;5006569;28;20192;-71
2021/04/30 02:23:01;;;;;;;5.13;1.33;;;19.30;64.60;;;;;;4985420;28;20228;-71
2021/04/30 02:25:28;;;;;;;2.30;1.33;;;19.20;67.30;;;;;;5018852;28;21448;-72
2021/04/30 02:27:58;;;;;;;5.93;1.47;;;19.20;66.90;;;;;;5002501;28;20212;-71
2021/04/30 02:30:26;;;;;;;4.57;1.67;;;19.20;67.00;;;;;;5001538;28;20196;-71
2021/04/30 02:32:53;;;;;;;8.83;1.87;;;19.20;67.70;;;;;;5001188;28;20279;-71
2021/04/30 02:35:45;;;;;;;8.43;1.90;;;19.20;68.60;;;;;;5002782;28;20305;-71
2021/04/30 02:38:14;;;;;;;5.70;1.50;;;19.20;69.20;;;;;;5002078;28;20672;-71
2021/04/30 02:40:45;;;;;;;6.83;1.77;;;19.20;68.20;;;;;;5003512;28;20211;-71
2021/04/30 02:43:16;;;;;;;8.83;1.97;;;19.20;68.50;;;;;;5003137;28;20291;-71
2021/04/30 02:45:44;;;;;;;7.00;1.70;;;19.10;68.60;;;;;;5001968;28;20320;-71
2021/04/30 02:48:13;;;;;;;11.77;1.90;;;19.20;68.70;;;;;;5000583;28;20304;-71
2021/04/30 02:50:42;;;;;;;8.50;1.90;;;19.20;67.20;;;;;;5002653;28;20207;-71
2021/04/30 02:53:09;;;;;;;4.77;1.70;;;19.30;66.00;;;;;;5002352;28;20185;-71
2021/04/30 02:55:35;;;;;;;6.97;2.03;;;19.40;65.00;;;;;;5002053;28;20184;-71
2021/04/30 02:58:01;;;;;;;8.60;1.97;;;19.60;65.60;;;;;;5000362;28;20193;-71
2021/04/30 03:00:30;;;;;;;7.20;1.70;;;19.80;65.00;;;;;;5010338;28;20227;-71
2021/04/30 03:02:58;;;;;;;5.67;1.63;;;19.80;63.90;;;;;;5003707;28;20185;-72
2021/04/30 03:05:24;;;;;;;10.50;2.17;;;20.10;63.10;;;;;;5023816;28;20181;-71
2021/04/30 03:07:51;;;;;;;8.90;2.27;;;20.20;64.90;;;;;;5006479;28;20201;-71
2021/04/30 03:10:18;;;;;;;12.90;1.90;;;20.30;65.10;;;;;;5011316;28;20852;-71
2021/04/30 03:12:49;;;;;;;7.53;2.00;;;20.40;64.80;;;;;;4985177;28;20208;-71
2021/04/30 03:15:17;;;;;;;9.93;2.10;;;20.40;65.10;;;;;;5007197;28;20189;-71
2021/04/30 03:17:44;;;;;;;9.60;2.13;;;20.40;66.50;;;;;;5004406;28;20264;-70
2021/04/30 03:20:12;;;;;;;12.00;2.10;;;20.40;68.60;;;;;;4986943;28;20204;-71
2021/04/30 03:22:38;;;;;;;7.17;2.30;;;20.30;69.60;;;;;;5005578;28;20192;-71
2021/04/30 03:25:06;;;;;;;9.97;2.30;;;20.40;69.90;;;;;;5006962;28;21463;-71
2021/04/30 03:27:35;;;;;;;10.63;2.33;;;20.40;70.40;;;;;;5003165;28;20510;-71
2021/04/30 03:30:03;;;;;;;19.00;2.50;;;20.40;71.00;;;;;;5007016;28;20231;-72
2021/04/30 03:32:29;;;;;;;10.67;2.17;;;20.40;71.30;;;;;;5005343;28;20191;-71
2021/04/30 03:34:55;;;;;;;11.93;2.67;;;20.40;72.10;;;;;;5004215;28;20295;-71
2021/04/30 03:37:25;;;;;;;8.37;2.20;;;20.40;72.70;;;;;;5019087;28;20996;-71
2021/04/30 03:39:52;;;;;;;10.67;2.70;;;20.30;74.50;;;;;;5002543;28;20653;-71
2021/04/30 03:42:19;;;;;;;7.60;1.93;;;20.10;77.10;;;;;;5003979;28;20936;-71
2021/04/30 03:44:45;;;;;;;10.97;2.50;;;20.00;78.80;;;;;;5008222;28;20645;-71
2021/04/30 03:47:11;;;;;;;12.87;2.63;;;19.90;80.20;;;;;;5002602;28;20305;-71
2021/04/30 03:49:38;;;;;;;11.10;2.90;;;19.80;81.70;;;;;;5022149;28;20200;-71
2021/04/30 03:52:06;;;;;;;12.83;2.93;;;19.70;83.80;;;;;;5004524;28;20204;-71
2021/04/30 03:54:32;;;;;;;20.23;3.03;;;19.50;84.10;;;;;;5004310;28;20194;-71
2021/04/30 03:56:59;;;;;;;11.87;2.53;;;19.50;85.90;;;;;;5005136;28;20651;-71
2021/04/30 03:59:32;;;;;;;10.83;2.63;;;19.30;87.20;;;;;;4988442;28;20201;-71
2021/04/30 04:01:58;;;;;;;10.23;2.57;;;19.20;85.70;;;;;;5017027;28;20711;-71
2021/04/30 04:04:25;;;;;;;6.13;2.30;;;19.20;86.60;;;;;;5005831;28;20613;-72
2021/04/30 04:06:51;;;;;;;10.30;2.40;;;19.30;84.80;;;;;;5004340;28;20273;-72
2021/04/30 04:09:18;;;;;;;8.60;2.30;;;19.30;84.60;;;;;;5005340;28;20212;-71
2021/04/30 04:11:45;;;;;;;12.53;2.50;;;19.20;86.70;;;;;;5011330;28;20185;-72
2021/04/30 04:14:12;;;;;;;7.73;2.10;;;19.20;87.60;;;;;;4987993;28;20196;-72
2021/04/30 04:16:38;;;;;;;11.60;1.97;;;19.20;88.60;;;;;;4992782;28;20189;-72
2021/04/30 04:19:04;;;;;;;6.77;1.80;;;19.20;88.90;;;;;;5005436;28;20200;-71
2021/04/30 04:21:31;;;;;;;6.20;1.97;;;19.20;90.00;;;;;;5006704;28;20201;-71
2021/04/30 04:23:57;;;;;;;13.90;2.17;;;19.20;90.50;;;;;;5003052;28;20189;-72
2021/04/30 04:26:23;;;;;;;8.70;2.10;;;19.30;90.80;;;;;;5006528;28;20212;-72
2021/04/30 04:28:50;;;;;;;10.87;2.30;;;19.40;91.20;;;;;;5007279;28;20213;-71
2021/04/30 04:31:16;;;;;;;6.30;2.10;;;19.40;91.20;;;;;;5005846;28;20196;-72
2021/04/30 04:33:42;;;;;;;5.57;1.90;;;19.50;91.20;;;;;;5008909;28;20221;-71
2021/04/30 04:36:09;;;;;;;4.60;1.90;;;19.50;91.80;;;;;;4985741;28;20196;-71
2021/04/30 04:38:35;;;;;;;7.10;1.67;;;19.60;92.10;;;;;;5004227;28;20209;-71
2021/04/30 04:41:01;;;;;;;6.63;1.57;;;19.70;92.60;;;;;;5005280;28;20276;-71
2021/04/30 04:43:28;;;;;;;8.73;1.83;;;19.70;93.30;;;;;;5003608;28;20558;-71
2021/04/30 04:45:54;;;;;;;10.30;2.30;;;19.80;94.00;;;;;;4990256;28;20185;-71
2021/04/30 04:48:21;;;;;;;12.13;2.00;;;19.90;95.50;;;;;;5003287;28;20185;-72
2021/04/30 04:50:47;;;;;;;8.17;1.70;;;20.10;95.40;;;;;;5003532;28;20189;-71
2021/04/30 04:53:13;;;;;;;12.80;2.17;;;20.20;97.00;;;;;;5004191;28;20189;-71
2021/04/30 04:55:41;;;;;;;10.73;2.03;;;20.40;98.60;;;;;;5003226;28;20254;-72
2021/04/30 04:58:07;;;;;;;3.20;1.67;;;20.50;99.50;;;;;;5002798;28;20232;-72
2021/04/30 05:00:33;;;;;;;7.40;1.87;;;20.70;99.90;;;;;;5009869;28;20204;-72
2021/04/30 05:03:00;;;;;;;6.73;1.87;;;20.80;99.90;;;;;;4985930;28;20268;-71
2021/04/30 05:05:27;;;;;;;6.83;1.83;;;20.90;99.90;;;;;;4987631;28;20789;-71
2021/04/30 05:07:54;;;;;;;6.30;1.80;;;21.00;99.90;;;;;;5004933;28;20223;-71
2021/04/30 05:10:23;;;;;;;5.67;1.80;;;21.10;99.90;;;;;;5004017;28;20288;-72
2021/04/30 05:12:49;;;;;;;7.10;1.77;;;21.20;99.90;;;;;;5002255;28;20736;-72
2021/04/30 05:15:16;;;;;;;6.30;1.90;;;21.30;99.90;;;;;;4986258;28;20189;-73
2021/04/30 05:17:43;;;;;;;4.90;1.40;;;21.30;99.90;;;;;;5017892;28;20542;-72
2021/04/30 05:20:13;;;;;;;7.10;1.83;;;21.20;99.90;;;;;;5008947;28;20193;-72
2021/04/30 05:22:42;;;;;;;7.83;2.10;;;21.10;98.40;;;;;;5007983;28;20250;-72
2021/04/30 05:25:11;;;;;;;5.57;1.83;;;21.10;94.70;;;;;;5004880;28;20189;-72
2021/04/30 05:27:41;;;;;;;7.13;1.57;;;21.10;91.00;;;;;;4989795;28;20208;-73
2021/04/30 05:30:11;;;;;;;8.67;1.70;;;21.20;88.00;;;;;;4989455;28;20235;-74
2021/04/30 05:32:38;;;;;;;8.53;1.70;;;21.30;83.40;;;;;;4986388;28;20189;-74
2021/04/30 05:35:07;;;;;;;4.83;1.50;;;21.30;82.60;;;;;;5017304;28;20208;-73
2021/04/30 05:37:34;;;;;;;12.07;1.80;;;21.50;76.60;;;;;;5009793;28;20220;-72
2021/04/30 05:40:01;;;;;;;4.73;1.70;;;21.70;74.90;;;;;;5020704;28;20779;-73
2021/04/30 05:42:28;;;;;;;6.97;1.70;;;21.90;70.90;;;;;;5000550;28;20281;-74
2021/04/30 05:44:55;;;;;;;3.77;1.20;;;22.10;73.00;;;;;;5003311;28;20625;-75
2021/04/30 05:47:23;;;;;;;9.90;1.83;;;22.10;73.70;;;;;;5018734;28;20228;-75
2021/04/30 05:49:49;;;;;;;9.97;1.90;;;22.10;71.70;;;;;;4987992;28;20253;-74
2021/04/30 05:52:16;;;;;;;6.60;2.30;;;22.50;75.40;;;;;;5002084;28;20197;-74
2021/04/30 05:54:45;;;;;;;9.33;2.17;;;22.50;73.20;;;;;;4987930;28;20238;-74
2021/04/30 05:57:12;;;;;;;6.40;2.07;;;22.50;74.90;;;;;;5003963;28;20196;-75
2021/04/30 05:59:38;;;;;;;8.00;2.17;;;22.50;74.50;;;;;;5003965;28;20283;-74
2021/04/30 06:02:05;;;;;;;14.20;1.77;;;22.70;76.50;;;;;;5000672;28;20195;-75
2021/04/30 06:04:31;;;;;;;7.53;1.73;;;22.70;78.60;;;;;;5000711;28;20995;-74
2021/04/30 06:06:59;;;;;;;11.07;2.30;;;22.50;79.00;;;;;;5003752;28;20259;-74
2021/04/30 06:09:28;;;;;;;11.27;2.40;;;22.80;85.80;;;;;;5001083;28;20200;-74
2021/04/30 06:11:55;;;;;;;6.07;1.60;;;23.00;86.40;;;;;;5011172;28;20279;-74
2021/04/30 06:14:29;;;;;;;4.40;1.63;;;22.90;87.40;;;;;;5009229;28;20356;-74
2021/04/30 06:16:56;;;;;;;2.20;1.23;;;22.80;87.30;;;;;;5004719;28;20307;-72
2021/04/30 06:19:23;;;;;;;3.93;1.50;;;22.50;83.50;;;;;;5000089;28;20653;-72
2021/04/30 06:21:49;;;;;;;10.57;1.60;;;22.40;82.40;;;;;;5002386;28;20208;-72
2021/04/30 06:24:16;;;;;;;6.90;1.50;;;22.40;78.30;;;;;;5006729;28;20231;-72
2021/04/30 06:26:42;;;;;;;5.47;1.70;;;22.50;79.30;;;;;;5002736;28;20212;-72
2021/04/30 06:29:09;;;;;;;3.93;1.50;;;22.60;81.50;;;;;;4986232;28;20553;-72
2021/04/30 06:31:37;;;;;;;4.87;1.50;;;22.60;83.70;;;;;;5002459;28;20208;-74
2021/04/30 06:34:05;;;;;;;2.87;1.20;;;22.90;85.90;;;;;;4998730;28;20568;-74
2021/04/30 06:36:34;;;;;;;5.27;1.70;;;22.90;85.60;;;;;;5003591;28;20205;-74
2021/04/30 06:39:01;;;;;;;3.70;1.50;;;23.00;86.20;;;;;;5022179;28;20205;-75
2021/04/30 06:41:28;;;;;;;6.77;1.93;;;22.80;85.00;;;;;;4995814;28;20593;-74
2021/04/30 06:43:55;;;;;;;7.23;1.33;;;22.80;85.40;;;;;;5005948;28;20222;-75
2021/04/30 06:46:23;;;;;;;3.60;1.30;;;22.60;83.30;;;;;;5019813;28;20315;-74
2021/04/30 06:48:51;;;;;;;3.60;1.23;;;22.60;84.40;;;;;;5007645;28;20193;-73
2021/04/30 06:51:17;;;;;;;5.03;1.13;;;22.70;85.00;;;;;;4992332;28;20280;-72
2021/04/30 06:53:44;;;;;;;3.73;1.37;;;22.50;85.60;;;;;;4988951;28;20185;-72
2021/04/30 06:56:11;;;;;;;3.13;1.50;;;22.40;89.60;;;;;;5021776;28;20192;-74
2021/04/30 06:58:37;;;;;;;3.80;1.40;;;22.30;90.20;;;;;;4991792;28;20248;-72
2021/04/30 07:01:04;;;;;;;5.20;1.30;;;22.40;88.90;;;;;;5009771;28;20192;-72
2021/04/30 07:03:31;;;;;;;1.30;1.00;;;22.60;89.70;;;;;;4984481;28;21064;-72
2021/04/30 07:05:58;;;;;;;4.83;1.27;;;22.80;88.00;;;;;;5005861;28;20204;-72
2021/04/30 07:08:24;;;;;;;2.17;1.40;;;23.10;89.70;;;;;;5000823;28;20181;-73
2021/04/30 07:10:51;;;;;;;3.67;1.40;;;23.00;90.60;;;;;;5005573;28;20275;-73
2021/04/30 07:13:17;;;;;;;3.20;1.60;;;23.20;90.00;;;;;;5005941;28;20246;-74
2021/04/30 07:15:45;;;;;;;5.37;1.30;;;23.50;87.30;;;;;;5007109;28;20247;-74
2021/04/30 07:18:11;;;;;;;3.20;1.40;;;23.60;88.90;;;;;;5020569;28;20255;-73
2021/04/30 07:20:38;;;;;;;9.43;1.70;;;23.70;88.70;;;;;;5013899;28;20188;-72
2021/04/30 07:23:05;;;;;;;7.17;1.30;;;24.00;87.40;;;;;;4999883;28;20197;-72
2021/04/30 07:25:32;;;;;;;5.10;1.20;;;24.00;82.90;;;;;;5018817;28;20193;-72
2021/04/30 07:28:01;;;;;;;4.60;1.50;;;24.10;85.30;;;;;;4985305;28;21094;-72
2021/04/30 07:30:27;;;;;;;4.37;1.40;;;24.20;76.50;;;;;;5005907;28;20288;-74
2021/04/30 07:32:53;;;;;;;7.63;1.30;;;24.40;80.20;;;;;;5006196;28;20262;-74
2021/04/30 07:35:20;;;;;;;5.45;1.70;;;24.30;78.80;;;;;;5007230;28;20370;-74
2021/04/30 07:37:46;;;;;;;5.47;1.63;;;24.40;80.50;;;;;;5005206;28;20185;-74
2021/04/30 07:40:14;;;;;;;4.83;1.50;;;24.70;70.00;;;;;;4987415;28;20351;-74
2021/04/30 07:42:40;;;;;;;6.57;1.35;;;24.90;67.40;;;;;;5004325;28;21518;-74
2021/04/30 07:45:07;;;;;;;7.13;1.50;;;25.00;60.10;;;;;;5005174;28;20193;-72
2021/04/30 07:47:34;;;;;;;3.58;1.52;;;24.80;58.10;;;;;;4988429;28;20223;-72
2021/04/30 07:50:01;;;;;;;6.78;1.58;;;24.90;57.00;;;;;;5007863;28;20193;-72
2021/04/30 07:52:27;;;;;;;2.65;1.23;;;25.30;56.50;;;;;;5018163;28;20500;-71
2021/04/30 07:54:54;;;;;;;4.30;1.50;;;25.30;52.10;;;;;;5020191;28;20281;-71
2021/04/30 07:57:20;;;;;;;3.38;1.33;;;25.30;48.50;;;;;;5005283;28;20267;-72
2021/04/30 07:59:48;;;;;;;4.82;1.35;;;25.30;50.90;;;;;;5005389;28;20523;-73
2021/04/30 08:02:15;;;;;;;14.70;1.55;;;25.60;45.40;;;;;;5014429;28;20196;-73
2021/04/30 08:04:41;;;;;;;4.97;1.40;;;25.70;46.80;;;;;;5003259;28;20906;-73
2021/04/30 08:07:07;;;;;;;5.20;1.10;;;25.70;50.00;;;;;;4989556;28;21385;-72
2021/04/30 08:09:35;;;;;;;5.00;1.30;;;25.60;47.20;;;;;;4992034;28;20189;-72
2021/04/30 08:12:01;;;;;;;5.78;1.50;;;25.80;47.00;;;;;;4990926;28;20180;-72
2021/04/30 08:14:29;;;;;;;7.00;1.55;;;25.60;49.90;;;;;;5020613;28;20759;-72
2021/04/30 08:16:56;;;;;;;4.97;1.55;;;26.00;48.30;;;;;;5016883;28;20189;-71
2021/04/30 08:19:24;;;;;;;7.65;2.13;;;26.30;50.50;;;;;;5001299;28;20279;-72
2021/04/30 08:21:50;;;;;;;5.82;1.35;;;26.30;52.40;;;;;;5004561;28;20189;-72
2021/04/30 08:24:20;;;;;;;6.70;1.65;;;26.30;48.70;;;;;;5004155;28;20258;-72
2021/04/30 08:26:47;;;;;;;8.32;1.58;;;26.20;49.80;;;;;;5006341;28;20263;-72
2021/04/30 08:29:18;;;;;;;5.88;1.40;;;26.30;51.20;;;;;;5004211;28;20565;-72
2021/04/30 08:31:44;;;;;;;7.80;1.60;;;26.40;48.80;;;;;;4981735;28;20519;-72
2021/04/30 08:34:11;;;;;;;5.95;1.38;;;26.70;47.60;;;;;;5001377;28;20218;-72
2021/04/30 08:36:37;;;;;;;4.38;1.63;;;26.80;49.10;;;;;;5004381;28;20199;-72
2021/04/30 08:39:09;;;;;;;3.95;1.55;;;26.90;50.10;;;;;;5006383;28;20236;-72
2021/04/30 08:41:37;;;;;;;7.30;1.80;;;27.10;48.50;;;;;;5001343;28;20601;-72
2021/04/30 08:44:05;;;;;;;13.30;1.88;;;26.90;49.20;;;;;;4990813;28;20888;-73
2021/04/30 08:46:33;;;;;;;3.53;1.50;;;27.10;50.90;;;;;;5007307;28;20213;-72
2021/04/30 08:49:10;;;;;;;4.15;1.40;;;27.20;50.40;;;;;;5006315;28;20975;-72
2021/04/30 08:51:39;;;;;;;7.60;1.60;;;27.30;50.00;;;;;;5006745;28;20539;-72
2021/04/30 08:54:07;;;;;;;4.15;1.70;;;27.40;50.40;;;;;;5002181;28;20758;-71
2021/04/30 08:56:37;;;;;;;5.50;1.83;;;27.30;47.00;;;;;;5000718;28;20185;-72
2021/04/30 08:59:06;;;;;;;5.18;1.50;;;27.40;50.60;;;;;;5014267;28;20216;-72
2021/04/30 09:01:33;;;;;;;6.90;1.58;;;27.60;48.10;;;;;;5000748;28;20192;-72
2021/04/30 09:04:00;;;;;;;7.55;1.70;;;27.60;49.70;;;;;;4997565;28;20189;-72
2021/04/30 09:06:39;;;;;;;8.20;1.88;;;27.90;51.80;;;;;;5003093;28;20975;-72
2021/04/30 09:09:11;;;;;;;10.32;2.10;;;27.90;51.80;;;;;;5004352;28;20287;-72
2021/04/30 09:11:48;;;;;;;9.50;1.80;;;28.00;49.00;;;;;;5000686;28;20197;-72
2021/04/30 09:14:43;;;;;;;8.43;1.63;;;28.20;47.50;;;;;;5014807;28;20193;-72
2021/04/30 09:17:17;;;;;;;10.57;1.70;;;28.10;47.10;;;;;;4999985;28;20201;-73
2021/04/30 09:19:59;;;;;;;7.45;1.60;;;28.40;48.90;;;;;;5003143;28;20189;-73
2021/04/30 09:22:36;;;;;;;4.85;1.60;;;28.50;47.70;;;;;;5001182;28;20196;-72
2021/04/30 09:25:16;;;;;;;4.03;1.50;;;28.60;47.10;;;;;;4985132;28;20196;-72
2021/04/30 09:27:53;;;;;;;3.78;1.38;;;28.60;46.10;;;;;;5004372;28;20389;-72
2021/04/30 09:30:30;;;;;;;3.50;1.65;;;28.80;46.40;;;;;;5017681;28;20743;-72
2021/04/30 09:33:12;;;;;;;7.10;1.60;;;28.80;47.30;;;;;;5008802;28;20199;-72
2021/04/30 09:35:55;;;;;;;12.07;1.85;;;28.90;46.10;;;;;;4982260;28;20181;-72
2021/04/30 09:38:29;;;;;;;6.18;1.50;;;28.80;46.10;;;;;;5009115;28;20187;-73
2021/04/30 09:41:01;;;;;;;12.68;2.03;;;28.80;47.10;;;;;;5013005;28;20188;-73
2021/04/30 09:43:51;;;;;;;7.38;1.65;;;28.90;47.30;;;;;;5013938;28;20234;-73
2021/04/30 09:46:35;;;;;;;7.32;1.60;;;29.10;44.20;;;;;;4956324;28;20213;-72
2021/04/30 09:49:14;;;;;;;5.05;1.40;;;28.90;45.30;;;;;;5001228;28;20220;-72
2021/04/30 09:51:52;;;;;;;4.03;1.98;;;29.10;44.20;;;;;;4984025;28;20192;-70
2021/04/30 09:54:29;;;;;;;6.78;1.88;;;29.20;46.30;;;;;;5010968;28;20572;-71
2021/04/30 09:57:26;;;;;;;4.32;1.88;;;29.30;44.20;;;;;;4981759;28;20181;-71
2021/04/30 10:00:11;;;;;;;6.53;1.77;;;29.50;45.40;;;;;;4999696;28;20225;-70
2021/04/30 10:02:38;;;;;;;6.93;2.08;;;29.50;46.30;;;;;;4997919;28;20184;-71
2021/04/30 10:05:21;;;;;;;10.23;2.60;;;29.60;43.40;;;;;;4999532;28;20280;-71
2021/04/30 10:07:48;;;;;;;6.10;1.80;;;29.70;44.50;;;;;;4999582;28;20208;-70
2021/04/30 10:10:19;;;;;;;7.47;2.00;;;29.70;44.80;;;;;;5014523;28;20219;-71
2021/04/30 10:12:59;;;;;;;12.32;1.75;;;29.70;43.40;;;;;;5001492;28;20193;-70
2021/04/30 10:15:27;;;;;;;8.80;2.00;;;29.80;45.40;;;;;;5020577;28;20195;-71
2021/04/30 10:17:59;;;;;;;4.70;1.80;;;30.00;42.70;;;;;;5008353;28;20673;-71
2021/04/30 10:20:26;;;;;;;7.85;2.10;;;30.00;42.60;;;;;;4996879;28;20734;-71
2021/04/30 10:22:55;;;;;;;4.97;1.75;;;30.10;44.20;;;;;;4987521;28;21024;-71
2021/04/30 10:25:23;;;;;;;7.15;1.80;;;30.10;42.30;;;;;;5006195;28;20697;-71
2021/04/30 10:27:53;;;;;;;12.43;2.47;;;30.10;42.90;;;;;;5007814;28;20678;-70
2021/04/30 10:30:27;;;;;;;5.95;1.58;;;30.30;43.00;;;;;;5019894;28;20364;-71
2021/04/30 10:33:19;;;;;;;4.75;1.80;;;30.50;42.80;;;;;;5004683;28;20192;-71
2021/04/30 10:35:58;;;;;;;8.38;2.20;;;30.30;44.60;;;;;;5001105;28;20693;-71
2021/04/30 10:38:29;;;;;;;4.78;2.00;;;30.20;42.30;;;;;;5002506;28;20206;-71
2021/04/30 10:41:06;;;;;;;10.43;2.10;;;30.20;43.70;;;;;;5002555;28;20200;-71
2021/04/30 10:43:33;;;;;;;7.70;1.98;;;30.20;44.00;;;;;;5003389;28;20961;-71
2021/04/30 10:46:13;;;;;;;8.43;2.22;;;30.10;45.30;;;;;;5004395;28;20221;-71
2021/04/30 10:49:07;;;;;;;10.38;2.03;;;30.00;47.10;;;;;;5016247;28;20843;-71
2021/04/30 10:51:39;;;;;;;7.35;1.92;;;30.00;46.50;;;;;;5003434;28;20335;-71
2021/04/30 10:54:30;;;;;;;8.52;2.08;;;29.80;47.60;;;;;;5008891;28;20586;-71
2021/04/30 10:57:12;;;;;;;7.53;2.20;;;29.90;49.60;;;;;;5018245;28;20561;-71
2021/04/30 10:59:39;;;;;;;9.52;2.42;;;29.80;48.30;;;;;;5006038;28;20208;-71
2021/04/30 11:02:12;;;;;;;9.00;1.92;;;29.80;50.10;;;;;;4998123;28;20632;-72
2021/04/30 11:04:39;;;;;;;8.43;2.10;;;29.80;50.30;;;;;;5002736;28;20203;-71
2021/04/30 11:07:09;;;;;;;11.93;2.05;;;29.60;48.70;;;;;;5001670;28;20221;-71
2021/04/30 11:09:39;;;;;;;8.80;2.17;;;29.40;47.40;;;;;;4991560;28;20185;-71
2021/04/30 11:12:18;;;;;;;6.70;2.03;;;29.30;48.70;;;;;;4997497;28;20693;-71
2021/04/30 11:15:03;;;;;;;6.40;2.20;;;29.40;49.40;;;;;;4989227;28;20203;-71
2021/04/30 11:17:58;;;;;;;8.25;1.88;;;29.40;49.50;;;;;;4998221;28;20184;-72
2021/04/30 11:20:35;;;;;;;6.15;2.20;;;29.30;50.10;;;;;;4985210;28;20181;-71
2021/04/30 11:23:18;;;;;;;10.48;2.20;;;29.40;50.40;;;;;;4999231;28;20188;-70
2021/04/30 11:26:14;;;;;;;6.45;2.25;;;29.20;49.50;;;;;;5017332;28;20197;-70
2021/04/30 11:28:41;;;;;;;6.28;1.88;;;29.20;50.60;;;;;;5004213;28;20193;-70
2021/04/30 11:31:18;;;;;;;9.32;2.20;;;29.20;51.70;;;;;;4998664;28;20209;-71
2021/04/30 11:34:13;;;;;;;6.15;2.17;;;29.20;51.70;;;;;;5003463;28;20977;-71
2021/04/30 11:36:41;;;;;;;8.70;2.28;;;29.00;52.70;;;;;;4972163;28;20201;-70
2021/04/30 11:39:37;;;;;;;7.35;2.25;;;29.00;51.70;;;;;;5015078;28;20331;-70
2021/04/30 11:42:06;;;;;;;7.07;2.15;;;28.90;51.50;;;;;;4993631;28;20177;-71
2021/04/30 11:44:36;;;;;;;6.95;2.58;;;29.00;51.20;;;;;;4991817;28;20181;-71
2021/04/30 11:47:05;;;;;;;14.55;2.42;;;28.90;50.00;;;;;;5020017;28;20268;-71
2021/04/30 11:49:39;;;;;;;6.68;2.45;;;28.80;52.50;;;;;;5020733;28;20245;-71
2021/04/30 11:52:14;;;;;;;7.53;2.25;;;28.80;51.90;;;;;;4998165;28;20263;-71
2021/04/30 11:54:41;;;;;;;11.90;2.30;;;28.80;53.20;;;;;;5005272;28;20181;-71
2021/04/30 11:57:12;;;;;;;10.50;2.20;;;28.90;52.70;;;;;;5000106;28;20227;-71
2021/04/30 11:59:43;;;;;;;11.90;2.47;;;28.90;51.60;;;;;;5012852;28;20235;-71
2021/04/30 12:02:12;;;;;;;6.63;2.53;;;28.80;51.50;;;;;;4985165;28;20247;-70
2021/04/30 12:04:57;;;;;;;7.50;2.60;;;28.80;52.50;;;;;;5017760;28;20676;-71
2021/04/30 12:07:27;;;;;;;12.88;2.60;;;28.90;51.50;;;;;;4998956;28;20201;-71
2021/04/30 12:09:54;;;;;;;13.88;2.65;;;28.90;52.10;;;;;;5001750;28;20185;-72
2021/04/30 12:12:28;;;;;;;8.88;2.85;;;28.80;51.20;;;;;;5006108;28;20213;-70
2021/04/30 12:15:29;;;;;;;7.20;2.45;;;28.90;52.40;;;;;;5003734;28;22076;-71
2021/04/30 12:17:55;;;;;;;8.48;2.50;;;28.90;52.80;;;;;;4994870;28;20196;-71
2021/04/30 12:20:28;;;;;;;7.90;2.33;;;28.70;53.30;;;;;;4998817;28;20201;-71
2021/04/30 12:23:13;;;;;;;7.30;2.38;;;29.00;50.90;;;;;;5000276;28;20188;-70
2021/04/30 12:25:48;;;;;;;15.65;2.45;;;28.90;51.40;;;;;;4980535;28;20181;-71
2021/04/30 12:28:21;;;;;;;6.65;2.40;;;28.80;51.90;;;;;;4999169;28;20251;-71
2021/04/30 12:31:06;;;;;;;8.80;2.78;;;28.70;51.10;;;;;;5000867;28;20292;-71
2021/04/30 12:33:48;;;;;;;10.20;2.58;;;28.60;52.30;;;;;;4997950;28;20221;-71
2021/04/30 12:36:22;;;;;;;11.38;2.65;;;28.60;53.70;;;;;;4990434;28;20181;-71
2021/04/30 12:38:56;;;;;;;10.55;2.58;;;28.40;53.90;;;;;;4981015;28;20188;-71
2021/04/30 12:41:31;;;;;;;11.45;2.35;;;28.30;53.20;;;;;;5016783;28;20204;-70
2021/04/30 12:44:10;;;;;;;7.97;2.22;;;28.30;54.80;;;;;;4999821;28;20204;-71
2021/04/30 12:46:41;;;;;;;9.38;2.40;;;28.30;54.10;;;;;;4997726;28;20208;-70
2021/04/30 12:49:11;;;;;;;9.60;2.42;;;28.20;55.90;;;;;;4982981;28;20184;-71
2021/04/30 12:51:43;;;;;;;9.45;2.55;;;28.20;55.20;;;;;;5001195;28;20892;-71
2021/04/30 12:54:12;;;;;;;11.48;2.78;;;28.10;54.80;;;;;;4984187;28;20252;-71
2021/04/30 12:56:53;;;;;;;9.30;2.55;;;28.10;55.50;;;;;;5002342;28;20189;-71
2021/04/30 12:59:25;;;;;;;9.50;2.28;;;28.20;55.00;;;;;;4987954;28;20554;-71
2021/04/30 13:02:11;;;;;;;11.98;2.83;;;28.00;55.10;;;;;;5012980;28;20197;-71